sensor_id;sensor_type;location;lat;lon;timestamp;temperature;humidity
36790;DHT22;22740;52.182;8.780;2022-12-18T00:05:24;-4.90;99.90
36790;DHT22;22740;52.182;8.780;2022-12-18T00:11:28;-4.80;99.90
36790;DHT22;22740;52.182;8.780;2022-12-18T00:17:30;-5.10;99.90
36790;DHT22;22740;52.182;8.780;2022-12-18T00:23:33;-5.50;99.90
36790;DHT22;22740;52.182;8.780;2022-12-18T00:29:35;-6.00;99.90
36790;DHT22;22740;52.182;8.780;2022-12-18T00:35:37;-6.20;99.90
36790;DHT22;22740;52.182;8.780;2022-12-18T00:41:41;-6.50;99.90
36790;DHT22;22740;52.182;8.780;2022-12-18T00:48:02;-6.80;99.90
36790;DHT22;22740;52.182;8.780;2022-12-18T00:54:05;-7.10;99.90
36790;DHT22;22740;52.182;8.780;2022-12-18T01:00:10;-7.00;99.90
36790;DHT22;22740;52.182;8.780;2022-12-18T01:06:13;-6.90;99.90
36790;DHT22;22740;52.182;8.780;2022-12-18T01:12:15;-6.80;99.90
36790;DHT22;22740;52.182;8.780;2022-12-18T01:18:17;-7.00;99.90
36790;DHT22;22740;52.182;8.780;2022-12-18T01:24:19;-7.20;99.90
36790;DHT22;22740;52.182;8.780;2022-12-18T01:30:21;-7.30;99.90
36790;DHT22;22740;52.182;8.780;2022-12-18T01:36:26;-7.20;99.90
36790;DHT22;22740;52.182;8.780;2022-12-18T01:42:28;-7.30;99.90
36790;DHT22;22740;52.182;8.780;2022-12-18T01:48:30;-7.40;99.90
36790;DHT22;22740;52.182;8.780;2022-12-18T01:54:32;-7.60;99.90
36790;DHT22;22740;52.182;8.780;2022-12-18T02:00:34;-7.70;99.90
36790;DHT22;22740;52.182;8.780;2022-12-18T02:06:40;-7.80;99.90
36790;DHT22;22740;52.182;8.780;2022-12-18T02:12:54;-7.80;99.90
36790;DHT22;22740;52.182;8.780;2022-12-18T02:19:01;-7.60;99.90
36790;DHT22;22740;52.182;8.780;2022-12-18T02:25:17;-7.90;99.90
36790;DHT22;22740;52.182;8.780;2022-12-18T02:31:27;-8.00;99.90
36790;DHT22;22740;52.182;8.780;2022-12-18T02:37:31;-8.00;99.90
36790;DHT22;22740;52.182;8.780;2022-12-18T02:43:33;-8.00;99.90
36790;DHT22;22740;52.182;8.780;2022-12-18T03:02:04;-7.90;99.90
36790;DHT22;22740;52.182;8.780;2022-12-18T03:08:24;-7.90;99.90
36790;DHT22;22740;52.182;8.780;2022-12-18T03:14:29;-8.10;99.90
36790;DHT22;22740;52.182;8.780;2022-12-18T03:20:34;-8.10;99.90
36790;DHT22;22740;52.182;8.780;2022-12-18T03:26:40;-8.20;99.90
36790;DHT22;22740;52.182;8.780;2022-12-18T03:33:10;-8.40;99.90
36790;DHT22;22740;52.182;8.780;2022-12-18T03:39:13;-8.20;99.90
36790;DHT22;22740;52.182;8.780;2022-12-18T03:45:31;-8.10;99.90
36790;DHT22;22740;52.182;8.780;2022-12-18T03:51:52;-8.10;99.90
36790;DHT22;22740;52.182;8.780;2022-12-18T03:57:54;-8.20;99.90
36790;DHT22;22740;52.182;8.780;2022-12-18T04:03:58;-8.30;99.90
36790;DHT22;22740;52.182;8.780;2022-12-18T04:10:01;-8.30;99.90
36790;DHT22;22740;52.182;8.780;2022-12-18T04:16:04;-8.40;99.90
36790;DHT22;22740;52.182;8.780;2022-12-18T04:22:06;-8.40;99.90
36790;DHT22;22740;52.182;8.780;2022-12-18T04:28:08;-8.40;99.90
36790;DHT22;22740;52.182;8.780;2022-12-18T04:34:10;-8.20;99.90
36790;DHT22;22740;52.182;8.780;2022-12-18T04:40:12;-8.30;99.90
36790;DHT22;22740;52.182;8.780;2022-12-18T04:46:14;-8.20;99.90
36790;DHT22;22740;52.182;8.780;2022-12-18T04:52:16;-8.10;99.90
36790;DHT22;22740;52.182;8.780;2022-12-18T04:58:18;-8.10;99.90
36790;DHT22;22740;52.182;8.780;2022-12-18T05:04:19;-8.00;99.90
36790;DHT22;22740;52.182;8.780;2022-12-18T05:10:21;-8.00;99.90
36790;DHT22;22740;52.182;8.780;2022-12-18T05:16:23;-8.00;99.90
36790;DHT22;22740;52.182;8.780;2022-12-18T05:22:25;-8.00;99.90
36790;DHT22;22740;52.182;8.780;2022-12-18T05:28:28;-8.00;99.90
36790;DHT22;22740;52.182;8.780;2022-12-18T05:34:30;-8.00;99.90
36790;DHT22;22740;52.182;8.780;2022-12-18T05:40:32;-8.00;99.90
36790;DHT22;22740;52.182;8.780;2022-12-18T05:46:34;-8.10;99.90
36790;DHT22;22740;52.182;8.780;2022-12-18T05:52:36;-8.10;99.90
36790;DHT22;22740;52.182;8.780;2022-12-18T05:58:37;-8.10;99.90
36790;DHT22;22740;52.182;8.780;2022-12-18T06:04:39;-8.10;99.90
36790;DHT22;22740;52.182;8.780;2022-12-18T06:10:41;-8.10;99.90
36790;DHT22;22740;52.182;8.780;2022-12-18T06:16:43;-8.10;99.90
36790;DHT22;22740;52.182;8.780;2022-12-18T06:22:45;-8.20;99.90
36790;DHT22;22740;52.182;8.780;2022-12-18T06:28:47;-8.30;99.90
36790;DHT22;22740;52.182;8.780;2022-12-18T06:34:49;-8.20;99.90
36790;DHT22;22740;52.182;8.780;2022-12-18T06:40:51;-8.30;99.90
36790;DHT22;22740;52.182;8.780;2022-12-18T06:46:52;-8.30;99.90
36790;DHT22;22740;52.182;8.780;2022-12-18T06:52:54;-8.20;99.90
36790;DHT22;22740;52.182;8.780;2022-12-18T06:58:56;-8.20;99.90
36790;DHT22;22740;52.182;8.780;2022-12-18T07:04:58;-8.20;99.90
36790;DHT22;22740;52.182;8.780;2022-12-18T07:11:03;-8.20;99.90
36790;DHT22;22740;52.182;8.780;2022-12-18T07:17:05;-8.30;99.90
36790;DHT22;22740;52.182;8.780;2022-12-18T07:23:07;-8.30;99.90
36790;DHT22;22740;52.182;8.780;2022-12-18T07:29:09;-8.40;99.90
36790;DHT22;22740;52.182;8.780;2022-12-18T07:35:10;-8.50;99.90
36790;DHT22;22740;52.182;8.780;2022-12-18T07:41:13;-8.80;99.90
36790;DHT22;22740;52.182;8.780;2022-12-18T07:47:15;-8.80;99.90
36790;DHT22;22740;52.182;8.780;2022-12-18T07:53:16;-7.80;99.90
36790;DHT22;22740;52.182;8.780;2022-12-18T07:59:18;-7.00;99.90
36790;DHT22;22740;52.182;8.780;2022-12-18T08:05:20;-7.00;99.90
36790;DHT22;22740;52.182;8.780;2022-12-18T08:11:24;-7.20;99.90
36790;DHT22;22740;52.182;8.780;2022-12-18T08:17:26;-7.40;99.90
36790;DHT22;22740;52.182;8.780;2022-12-18T08:23:28;-7.30;99.90
36790;DHT22;22740;52.182;8.780;2022-12-18T08:29:29;-7.20;99.90
36790;DHT22;22740;52.182;8.780;2022-12-18T08:35:35;-7.10;99.90
36790;DHT22;22740;52.182;8.780;2022-12-18T08:41:46;-6.90;99.90
36790;DHT22;22740;52.182;8.780;2022-12-18T08:48:11;-6.60;99.90
36790;DHT22;22740;52.182;8.780;2022-12-18T08:54:12;-6.50;99.90
36790;DHT22;22740;52.182;8.780;2022-12-18T09:00:15;-6.20;99.90
36790;DHT22;22740;52.182;8.780;2022-12-18T09:06:19;-4.60;99.90
36790;DHT22;22740;52.182;8.780;2022-12-18T09:12:21;-3.70;99.90
36790;DHT22;22740;52.182;8.780;2022-12-18T09:18:24;-3.20;99.90
36790;DHT22;22740;52.182;8.780;2022-12-18T09:24:26;-2.90;99.90
36790;DHT22;22740;52.182;8.780;2022-12-18T09:30:27;-2.70;99.90
36790;DHT22;22740;52.182;8.780;2022-12-18T09:36:29;-2.50;99.90
36790;DHT22;22740;52.182;8.780;2022-12-18T09:42:31;-2.40;99.90
36790;DHT22;22740;52.182;8.780;2022-12-18T09:48:41;-2.30;99.90
36790;DHT22;22740;52.182;8.780;2022-12-18T09:54:51;-2.20;99.90
36790;DHT22;22740;52.182;8.780;2022-12-18T10:00:55;-2.00;99.90
36790;DHT22;22740;52.182;8.780;2022-12-18T10:07:19;-1.90;99.90
36790;DHT22;22740;52.182;8.780;2022-12-18T10:13:33;-1.60;99.90
36790;DHT22;22740;52.182;8.780;2022-12-18T10:19:43;-1.50;99.90
36790;DHT22;22740;52.182;8.780;2022-12-18T10:26:02;-1.40;99.90
36790;DHT22;22740;52.182;8.780;2022-12-18T10:32:04;-1.30;99.90
36790;DHT22;22740;52.182;8.780;2022-12-18T10:38:21;-1.00;99.90
36790;DHT22;22740;52.182;8.780;2022-12-18T10:44:23;-0.80;99.90
36790;DHT22;22740;52.182;8.780;2022-12-18T10:50:37;-0.70;99.90
36790;DHT22;22740;52.182;8.780;2022-12-18T10:57:35;-0.60;99.90
36790;DHT22;22740;52.182;8.780;2022-12-18T11:04:07;-0.50;99.90
36790;DHT22;22740;52.182;8.780;2022-12-18T11:10:19;-0.30;99.90
36790;DHT22;22740;52.182;8.780;2022-12-18T11:16:21;-0.20;99.90
36790;DHT22;22740;52.182;8.780;2022-12-18T11:22:34;-0.30;99.90
36790;DHT22;22740;52.182;8.780;2022-12-18T11:28:45;-0.50;99.90
36790;DHT22;22740;52.182;8.780;2022-12-18T11:34:52;-0.70;99.90
36790;DHT22;22740;52.182;8.780;2022-12-18T11:41:07;-0.90;99.90
36790;DHT22;22740;52.182;8.780;2022-12-18T11:53:25;-0.80;99.90
36790;DHT22;22740;52.182;8.780;2022-12-18T11:59:36;-0.70;99.90
36790;DHT22;22740;52.182;8.780;2022-12-18T12:06:10;-0.70;99.90
36790;DHT22;22740;52.182;8.780;2022-12-18T12:18:37;-0.70;99.90
36790;DHT22;22740;52.182;8.780;2022-12-18T12:38:22;-0.60;99.90
36790;DHT22;22740;52.182;8.780;2022-12-18T12:44:29;-0.60;99.90
36790;DHT22;22740;52.182;8.780;2022-12-18T12:50:34;-0.50;99.90
36790;DHT22;22740;52.182;8.780;2022-12-18T12:56:44;-0.50;99.90
36790;DHT22;22740;52.182;8.780;2022-12-18T13:03:00;-0.50;99.90
36790;DHT22;22740;52.182;8.780;2022-12-18T13:09:05;-0.50;99.90
36790;DHT22;22740;52.182;8.780;2022-12-18T13:21:40;-0.50;99.90
36790;DHT22;22740;52.182;8.780;2022-12-18T13:27:46;-0.40;99.90
36790;DHT22;22740;52.182;8.780;2022-12-18T13:34:26;-0.50;99.90
36790;DHT22;22740;52.182;8.780;2022-12-18T13:46:44;-0.40;99.90
36790;DHT22;22740;52.182;8.780;2022-12-18T13:52:47;-0.40;99.90
36790;DHT22;22740;52.182;8.780;2022-12-18T13:59:12;-0.20;99.90
36790;DHT22;22740;52.182;8.780;2022-12-18T14:11:26;-0.20;99.90
36790;DHT22;22740;52.182;8.780;2022-12-18T14:17:31;-0.10;99.90
36790;DHT22;22740;52.182;8.780;2022-12-18T14:23:37;-0.20;99.90
36790;DHT22;22740;52.182;8.780;2022-12-18T14:29:43;-0.20;99.90
36790;DHT22;22740;52.182;8.780;2022-12-18T14:41:58;-0.30;99.90
36790;DHT22;22740;52.182;8.780;2022-12-18T14:48:00;-0.40;99.90
36790;DHT22;22740;52.182;8.780;2022-12-18T14:54:05;-0.40;99.90
36790;DHT22;22740;52.182;8.780;2022-12-18T15:00:22;-0.30;99.90
36790;DHT22;22740;52.182;8.780;2022-12-18T15:06:36;-0.40;99.90
36790;DHT22;22740;52.182;8.780;2022-12-18T15:12:48;-0.40;99.90
36790;DHT22;22740;52.182;8.780;2022-12-18T15:18:51;-0.40;99.90
36790;DHT22;22740;52.182;8.780;2022-12-18T15:24:54;-0.40;99.90
36790;DHT22;22740;52.182;8.780;2022-12-18T15:31:21;-0.40;99.90
36790;DHT22;22740;52.182;8.780;2022-12-18T15:37:24;-0.40;99.90
36790;DHT22;22740;52.182;8.780;2022-12-18T15:43:26;-0.50;99.90
36790;DHT22;22740;52.182;8.780;2022-12-18T15:49:38;-0.50;99.90
36790;DHT22;22740;52.182;8.780;2022-12-18T15:55:40;-0.50;99.90
36790;DHT22;22740;52.182;8.780;2022-12-18T16:02:02;-0.50;99.90
36790;DHT22;22740;52.182;8.780;2022-12-18T16:08:04;-0.50;99.90
36790;DHT22;22740;52.182;8.780;2022-12-18T16:14:19;-0.60;99.90
36790;DHT22;22740;52.182;8.780;2022-12-18T16:20:21;-0.50;99.90
36790;DHT22;22740;52.182;8.780;2022-12-18T16:26:23;-0.60;99.90
36790;DHT22;22740;52.182;8.780;2022-12-18T16:32:25;-0.60;99.90
36790;DHT22;22740;52.182;8.780;2022-12-18T16:38:28;-0.50;99.90
36790;DHT22;22740;52.182;8.780;2022-12-18T16:44:30;-0.60;99.90
36790;DHT22;22740;52.182;8.780;2022-12-18T16:50:31;-0.60;99.90
36790;DHT22;22740;52.182;8.780;2022-12-18T16:56:33;-0.70;99.90
36790;DHT22;22740;52.182;8.780;2022-12-18T17:02:35;-0.70;99.90
36790;DHT22;22740;52.182;8.780;2022-12-18T17:08:37;-0.50;99.90
36790;DHT22;22740;52.182;8.780;2022-12-18T17:14:39;-0.60;99.90
36790;DHT22;22740;52.182;8.780;2022-12-18T17:20:41;-0.50;99.90
36790;DHT22;22740;52.182;8.780;2022-12-18T17:26:43;-0.50;99.90
36790;DHT22;22740;52.182;8.780;2022-12-18T17:32:47;-0.50;99.90
36790;DHT22;22740;52.182;8.780;2022-12-18T17:38:54;-0.40;99.90
36790;DHT22;22740;52.182;8.780;2022-12-18T17:44:56;-0.40;99.90
36790;DHT22;22740;52.182;8.780;2022-12-18T17:51:02;-0.40;99.90
36790;DHT22;22740;52.182;8.780;2022-12-18T17:57:04;-0.40;99.90
36790;DHT22;22740;52.182;8.780;2022-12-18T18:03:06;-0.50;99.90
36790;DHT22;22740;52.182;8.780;2022-12-18T18:09:09;-0.40;99.90
36790;DHT22;22740;52.182;8.780;2022-12-18T18:15:17;-0.30;99.90
36790;DHT22;22740;52.182;8.780;2022-12-18T18:21:19;-0.50;99.90
36790;DHT22;22740;52.182;8.780;2022-12-18T18:27:21;-0.50;99.90
36790;DHT22;22740;52.182;8.780;2022-12-18T18:33:23;-0.50;99.90
36790;DHT22;22740;52.182;8.780;2022-12-18T18:39:25;-0.60;99.90
36790;DHT22;22740;52.182;8.780;2022-12-18T18:45:27;-0.60;99.90
36790;DHT22;22740;52.182;8.780;2022-12-18T18:51:29;-0.50;99.90
36790;DHT22;22740;52.182;8.780;2022-12-18T18:57:35;-0.50;99.90
36790;DHT22;22740;52.182;8.780;2022-12-18T19:03:38;-0.60;99.90
36790;DHT22;22740;52.182;8.780;2022-12-18T19:09:40;-0.60;99.90
36790;DHT22;22740;52.182;8.780;2022-12-18T19:15:42;-0.60;99.90
36790;DHT22;22740;52.182;8.780;2022-12-18T19:21:44;-0.80;99.90
36790;DHT22;22740;52.182;8.780;2022-12-18T19:27:46;-0.80;99.90
36790;DHT22;22740;52.182;8.780;2022-12-18T19:33:47;-0.90;99.90
36790;DHT22;22740;52.182;8.780;2022-12-18T19:39:49;-1.00;99.90
36790;DHT22;22740;52.182;8.780;2022-12-18T19:45:54;-1.10;99.90
36790;DHT22;22740;52.182;8.780;2022-12-18T19:51:56;-1.10;99.90
36790;DHT22;22740;52.182;8.780;2022-12-18T19:57:58;-1.10;99.90
36790;DHT22;22740;52.182;8.780;2022-12-18T20:04:00;-1.10;99.90
36790;DHT22;22740;52.182;8.780;2022-12-18T20:10:07;-1.10;99.90
36790;DHT22;22740;52.182;8.780;2022-12-18T20:16:10;-1.10;99.90
36790;DHT22;22740;52.182;8.780;2022-12-18T20:22:13;-1.10;99.90
36790;DHT22;22740;52.182;8.780;2022-12-18T20:28:15;-1.10;99.90
36790;DHT22;22740;52.182;8.780;2022-12-18T20:34:16;-1.10;99.90
36790;DHT22;22740;52.182;8.780;2022-12-18T20:40:18;-1.10;99.90
36790;DHT22;22740;52.182;8.780;2022-12-18T20:46:20;-1.10;99.90
36790;DHT22;22740;52.182;8.780;2022-12-18T20:52:22;-1.20;99.90
36790;DHT22;22740;52.182;8.780;2022-12-18T20:58:24;-1.10;99.90
36790;DHT22;22740;52.182;8.780;2022-12-18T21:04:26;-1.10;99.90
36790;DHT22;22740;52.182;8.780;2022-12-18T21:10:28;-1.10;99.90
36790;DHT22;22740;52.182;8.780;2022-12-18T21:16:30;-1.10;99.90
36790;DHT22;22740;52.182;8.780;2022-12-18T21:22:35;-1.10;99.90
36790;DHT22;22740;52.182;8.780;2022-12-18T21:28:37;-1.10;99.90
36790;DHT22;22740;52.182;8.780;2022-12-18T21:34:39;-1.10;99.90
36790;DHT22;22740;52.182;8.780;2022-12-18T21:40:48;-1.10;99.90
36790;DHT22;22740;52.182;8.780;2022-12-18T21:46:50;-1.10;99.90
36790;DHT22;22740;52.182;8.780;2022-12-18T21:53:00;-1.10;99.90
36790;DHT22;22740;52.182;8.780;2022-12-18T21:59:02;-1.10;99.90
36790;DHT22;22740;52.182;8.780;2022-12-18T22:05:04;-1.00;99.90
36790;DHT22;22740;52.182;8.780;2022-12-18T22:11:06;-1.00;99.90
36790;DHT22;22740;52.182;8.780;2022-12-18T22:17:08;-1.10;99.90
36790;DHT22;22740;52.182;8.780;2022-12-18T22:23:11;-1.00;99.90
36790;DHT22;22740;52.182;8.780;2022-12-18T22:29:16;-1.00;99.90
36790;DHT22;22740;52.182;8.780;2022-12-18T22:35:36;-1.10;99.90
36790;DHT22;22740;52.182;8.780;2022-12-18T22:41:41;-1.00;99.90
36790;DHT22;22740;52.182;8.780;2022-12-18T22:47:43;-1.00;99.90
36790;DHT22;22740;52.182;8.780;2022-12-18T22:53:45;-0.90;99.90
36790;DHT22;22740;52.182;8.780;2022-12-18T22:59:49;-0.90;99.90
36790;DHT22;22740;52.182;8.780;2022-12-18T23:05:51;-0.80;99.90
36790;DHT22;22740;52.182;8.780;2022-12-18T23:11:55;-0.80;99.90
36790;DHT22;22740;52.182;8.780;2022-12-18T23:17:57;-0.80;99.90
36790;DHT22;22740;52.182;8.780;2022-12-18T23:23:59;-0.70;99.90
36790;DHT22;22740;52.182;8.780;2022-12-18T23:30:01;-0.70;99.90
36790;DHT22;22740;52.182;8.780;2022-12-18T23:36:04;-0.60;99.90
36790;DHT22;22740;52.182;8.780;2022-12-18T23:42:06;-0.70;99.90
36790;DHT22;22740;52.182;8.780;2022-12-18T23:48:08;-0.80;99.90
36790;DHT22;22740;52.182;8.780;2022-12-18T23:54:09;-0.70;99.90
